.
WxDataArchive / Data Records for 2006-05-30
2006-05-29 May 2006 2006-05-31

Data Records for Tuesday, 30 May 2006

Time	Temp	Chill	HIndex	Humid	Dewpt	 Wind 	HiWind	WindDir	Rain 	Barom 
-----	----	-----	------	-----	-----	------	------	-------	-----	----- 
00:00	73.9	73.9	73.9	74	65.1	0	2	158	0.00	30.021 
00:05	73.9	73.9	73.9	73	64.7	0	0	---	0.00	30.021 
00:10	73.9	73.9	73.9	73	64.7	0	0	---	0.00	30.021 
00:15	74.0	74.0	74.0	73	64.8	0	0	---	0.00	30.015 
00:20	74.0	74.0	74.0	73	64.8	0	0	---	0.00	30.015 
00:25	74.0	74.0	74.0	73	64.8	0	0	---	0.00	30.015 
00:30	74.0	74.0	74.0	73	64.8	0	0	---	0.00	30.015 
00:35	74.0	74.0	74.0	73	64.8	0	0	---	0.00	30.015 
00:40	74.0	74.0	74.0	73	64.8	0	0	---	0.00	30.015 
00:45	74.0	74.0	74.0	74	65.2	0	1	158	0.00	30.009 
00:50	73.9	73.9	73.9	74	65.1	0	1	158	0.00	30.009 
00:55	73.9	73.9	73.9	74	65.1	0	0	---	0.00	30.009 
01:00	73.7	73.7	73.7	74	64.9	0	0	---	0.00	30.006 
01:05	73.5	73.5	73.5	75	65.1	0	0	---	0.00	30.006 
01:10	73.5	73.5	73.5	76	65.5	0	0	---	0.00	30.006 
01:15	73.3	73.3	73.3	76	65.3	0	1	158	0.00	30.004 
01:20	73.2	73.2	73.2	76	65.2	0	0	---	0.00	30.004 
01:25	73.2	73.2	73.2	76	65.2	0	0	---	0.00	30.004 
01:30	73.0	73.0	73.0	76	65.0	0	0	---	0.00	30.008 
01:35	73.2	73.2	73.2	76	65.2	0	1	158	0.00	30.008 
01:40	73.0	73.0	73.0	76	65.0	0	0	---	0.00	30.008 
01:45	73.0	73.0	73.0	76	65.0	0	0	---	0.00	30.004 
01:50	72.8	72.8	72.8	77	65.2	0	0	---	0.00	30.004 
01:55	72.7	72.7	72.7	78	65.4	0	0	---	0.00	30.004 
02:00	72.5	72.5	72.5	78	65.2	0	0	---	0.00	30.005 
02:05	72.3	72.3	72.3	79	65.4	0	0	---	0.00	30.005 
02:10	72.1	72.1	72.1	80	65.6	0	0	---	0.00	30.005 
02:15	71.8	71.8	71.8	81	65.6	0	0	---	0.00	30.004 
02:20	71.6	71.6	71.6	81	65.4	0	0	---	0.00	30.004 
02:25	71.5	71.5	71.5	81	65.4	0	0	---	0.00	30.004 
02:30	71.3	71.3	71.3	81	65.2	0	0	---	0.00	30.004 
02:35	70.9	70.9	70.9	82	65.1	0	0	---	0.00	30.004 
02:40	70.8	70.8	70.8	82	65.0	0	0	---	0.00	30.004 
02:45	70.6	70.6	70.6	82	64.8	0	0	---	0.00	29.996 
02:50	70.4	70.4	70.4	83	65.0	0	0	---	0.00	29.996 
02:55	70.1	70.1	70.1	84	65.0	0	1	158	0.00	29.996 
03:00	70.1	70.1	70.1	84	65.0	0	2	158	0.00	30.004 
03:05	70.4	70.4	70.4	83	65.0	0	1	158	0.00	30.004 
03:10	70.4	70.4	70.4	83	65.0	0	1	158	0.00	30.004 
03:15	70.4	70.4	70.4	83	65.0	0	0	---	0.00	30.005 
03:20	70.4	70.4	70.4	83	65.0	0	0	---	0.00	30.005 
03:25	70.3	70.3	70.3	83	64.9	0	0	---	0.00	30.005 
03:30	70.1	70.1	70.1	83	64.7	0	1	158	0.00	29.997 
03:35	69.9	69.9	69.9	83	64.5	0	0	---	0.00	29.997 
03:40	69.8	69.8	69.8	84	64.7	0	0	---	0.00	29.997 
03:45	69.6	69.6	69.6	84	64.5	0	0	---	0.00	30.005 
03:50	69.6	69.6	69.6	84	64.5	0	0	---	0.00	30.005 
03:55	69.4	69.4	69.4	84	64.3	0	0	---	0.00	30.005 
04:00	69.3	69.3	69.3	84	64.2	0	1	158	0.00	30.008 
04:05	69.1	69.1	69.1	84	64.1	0	0	---	0.00	30.008 
04:10	68.9	68.9	68.9	85	64.2	0	0	---	0.00	30.008 
04:15	68.9	68.9	68.9	85	64.2	0	0	---	0.00	30.006 
04:20	68.8	68.8	68.8	86	64.4	0	0	---	0.00	30.006 
04:25	68.6	68.6	68.6	86	64.2	0	0	---	0.00	30.006 
04:30	68.4	68.4	68.4	86	64.0	0	0	---	0.00	30.007 
04:35	68.3	68.3	68.3	87	64.3	0	0	---	0.00	30.007 
04:40	68.3	68.3	68.3	87	64.3	0	0	---	0.00	30.007 
04:45	68.1	68.1	68.1	87	64.1	0	0	---	0.00	30.007 
04:50	68.1	68.1	68.1	88	64.4	0	0	---	0.00	30.007 
04:55	68.1	68.1	68.1	88	64.4	0	0	---	0.00	30.007 
05:00	68.1	68.1	68.1	88	64.4	0	0	---	0.00	30.005 
05:05	68.1	68.1	68.1	88	64.4	0	0	---	0.00	30.005 
05:10	68.1	68.1	68.1	88	64.4	0	0	---	0.00	30.005 
05:15	68.1	68.1	68.1	88	64.4	0	0	---	0.00	30.006 
05:20	68.1	68.1	68.1	88	64.4	0	0	---	0.00	30.006 
05:25	68.1	68.1	68.1	88	64.4	0	0	---	0.00	30.006 
05:30	68.3	68.3	68.3	88	64.6	0	0	---	0.00	30.011 
05:35	68.3	68.3	68.3	88	64.6	0	0	---	0.00	30.011 
05:40	68.3	68.3	68.3	88	64.6	0	0	---	0.00	30.011 
05:45	68.3	68.3	68.3	88	64.6	0	0	---	0.00	30.015 
05:50	68.3	68.3	68.3	87	64.3	0	0	---	0.00	30.015 
05:55	68.3	68.3	68.3	87	64.3	0	0	---	0.00	30.015 
06:00	68.1	68.1	68.1	87	64.1	0	0	---	0.00	30.022 
06:05	68.1	68.1	68.1	88	64.4	0	0	---	0.00	30.022 
06:10	67.9	67.9	67.9	88	64.2	0	0	---	0.00	30.022 
06:15	67.9	67.9	67.9	88	64.2	0	0	---	0.00	30.024 
06:20	67.8	67.8	67.8	88	64.1	0	0	---	0.00	30.024 
06:25	67.8	67.8	67.8	88	64.1	0	0	---	0.00	30.024 
06:30	67.6	67.6	67.6	88	63.9	0	0	---	0.00	30.028 
06:35	67.6	67.6	67.6	89	64.2	0	0	---	0.00	30.028 
06:40	67.8	67.8	67.8	89	64.4	0	0	---	0.00	30.028 
06:45	67.8	67.8	67.8	89	64.4	0	0	---	0.00	30.029 
06:50	67.9	67.9	67.9	89	64.5	0	0	---	0.00	30.029 
06:55	68.1	68.1	68.1	89	64.7	0	0	---	0.00	30.029 
07:00	68.4	68.4	68.4	89	65.0	0	0	---	0.00	30.030 
07:05	68.6	68.6	68.6	89	65.2	0	0	---	0.00	30.030 
07:10	68.8	68.8	68.8	89	65.4	0	0	---	0.00	30.030 
07:15	69.1	69.1	69.1	88	65.4	0	0	---	0.00	30.031 
07:20	69.6	69.6	69.6	88	65.9	0	0	---	0.00	30.031 
07:25	70.3	70.3	70.3	85	65.6	0	0	---	0.00	30.031 
07:30	70.9	70.9	70.9	81	64.8	0	0	---	0.00	30.031 
07:35	71.8	71.8	71.8	80	65.3	0	0	---	0.00	30.031 
07:40	72.5	72.5	72.5	79	65.6	0	0	---	0.00	30.031 
07:45	72.8	72.8	72.8	79	65.9	0	0	---	0.00	30.039 
07:50	73.2	73.2	73.2	78	65.9	0	0	---	0.00	30.039 
07:55	73.5	73.5	73.5	77	65.8	0	0	---	0.00	30.039 
08:00	73.7	73.7	73.7	78	66.4	0	0	---	0.00	30.043 
08:05	74.0	74.0	74.0	77	66.3	0	0	---	0.00	30.043 
08:10	74.7	74.7	74.7	76	66.6	0	0	---	0.00	30.043 
08:15	75.4	75.4	76.8	73	66.1	0	1	158	0.00	30.044 
08:20	76.3	76.3	77.9	72	66.6	0	1	158	0.00	30.044 
08:25	76.8	76.8	78.5	70	66.3	0	1	158	0.00	30.044 
08:30	77.2	77.2	79.0	70	66.6	0	2	158	0.00	30.046 
08:35	77.4	77.4	79.2	69	66.4	0	1	158	0.00	30.046 
08:40	78.1	78.1	80.1	69	67.1	0	1	158	0.00	30.046 
08:45	78.8	78.8	81.0	68	67.3	0	2	158	0.00	30.044 
08:50	79.6	79.6	81.8	65	66.8	0	2	158	0.00	30.044 
08:55	79.9	79.9	82.3	66	67.5	0	2	158	0.00	30.044 
09:00	80.5	80.5	82.9	64	67.2	0	1	158	0.00	30.042 
09:05	81.1	81.1	83.8	64	67.7	0	1	158	0.00	30.042 
09:10	81.1	81.1	83.6	63	67.3	0	2	158	0.00	30.042 
09:15	81.2	81.2	83.6	62	66.9	1	2	135	0.00	30.043 
09:20	81.8	81.8	84.5	62	67.5	0	1	135	0.00	30.043 
09:25	82.0	82.0	85.0	63	68.1	1	3	225	0.00	30.043 
09:30	82.2	82.2	85.1	62	67.9	0	2	225	0.00	30.045 
09:35	82.6	82.6	85.5	61	67.8	1	3	225	0.00	30.045 
09:40	83.2	83.2	86.2	60	67.8	0	2	112	0.00	30.045 
09:45	83.6	83.6	86.9	60	68.2	1	3	248	0.00	30.039 
09:50	84.0	84.0	87.5	60	68.6	1	4	270	0.00	30.039 
09:55	84.3	84.3	87.8	59	68.4	1	2	270	0.00	30.039 
10:00	84.5	84.5	87.8	58	68.1	1	3	270	0.00	30.037 
10:05	84.5	84.5	87.5	57	67.6	1	3	248	0.00	30.037 
10:10	84.5	84.5	87.8	58	68.1	1	3	270	0.00	30.037 
10:15	85.1	85.1	88.5	57	68.1	1	3	90	0.00	30.039 
10:20	85.3	85.3	89.2	58	68.8	2	4	90	0.00	30.039 
10:25	85.3	85.3	88.8	57	68.3	2	5	90	0.00	30.039 
10:30	85.3	85.3	89.2	58	68.8	2	3	90	0.00	30.037 
10:35	85.3	85.3	89.8	60	69.8	1	3	90	0.00	30.037 
10:40	85.5	85.5	89.2	57	68.5	1	5	270	0.00	30.037 
10:45	86.1	86.1	91.3	60	70.6	1	3	0	0.00	30.035 
10:50	86.5	86.5	91.0	57	69.4	1	3	22	0.00	30.035 
10:55	86.7	86.7	91.7	58	70.1	1	5	68	0.00	30.035 
11:00	86.7	86.7	90.6	55	68.6	1	4	248	0.00	30.036 
11:05	87.2	87.2	91.9	56	69.6	1	3	248	0.00	30.036 
11:10	86.7	86.7	89.9	53	67.5	2	5	248	0.00	30.036 
11:15	86.7	86.7	90.6	55	68.6	2	4	248	0.00	30.038 
11:20	86.5	86.5	89.9	54	67.8	3	7	248	0.00	30.038 
11:25	87.0	87.0	91.1	55	68.8	1	5	248	0.00	30.038 
11:30	87.6	87.6	91.5	53	68.3	1	4	248	0.00	30.036 
11:35	87.6	87.6	91.1	52	67.8	2	5	270	0.00	30.036 
11:40	87.4	87.4	91.1	53	68.1	2	6	248	0.00	30.036 
11:45	87.4	87.4	90.4	51	67.0	2	5	248	0.00	30.038 
11:50	87.4	87.4	90.7	52	67.6	1	4	292	0.00	30.038 
11:55	87.2	87.2	90.1	51	66.8	2	5	248	0.00	30.038 
12:00	87.2	87.2	90.8	53	67.9	2	4	248	0.00	30.039 
12:05	87.4	87.4	90.4	51	67.0	2	6	248	0.00	30.039 
12:10	87.6	87.6	90.4	50	66.6	2	5	248	0.00	30.039 
12:15	88.0	88.0	91.8	52	68.1	2	5	248	0.00	30.035 
12:20	88.2	88.2	91.0	49	66.6	2	4	248	0.00	30.035 
12:25	88.2	88.2	91.8	51	67.7	1	3	248	0.00	30.035 
12:30	88.2	88.2	91.4	50	67.2	2	4	248	0.00	30.031 
12:35	88.2	88.2	91.0	49	66.6	2	6	270	0.00	30.031 
12:40	88.4	88.4	91.7	50	67.4	2	5	270	0.00	30.031 
12:45	88.2	88.2	90.7	48	66.0	2	5	248	0.00	30.023 
12:50	88.0	88.0	90.3	48	65.8	2	6	270	0.00	30.023 
12:55	88.2	88.2	92.5	53	68.9	1	5	225	0.00	30.023 
13:00	88.4	88.4	91.7	50	67.4	3	5	270	0.00	30.015 
13:05	88.6	88.6	91.7	49	67.0	2	6	248	0.00	30.015 
13:10	88.2	88.2	91.0	49	66.6	2	4	248	0.00	30.015 
13:15	88.4	88.4	91.0	48	66.2	2	5	248	0.00	30.009 
13:20	88.6	88.6	91.3	48	66.4	2	4	270	0.00	30.009 
13:25	88.6	88.6	92.1	50	67.5	3	6	270	0.00	30.009 
13:30	89.0	89.0	92.4	49	67.3	2	6	270	0.00	30.005 
13:35	89.5	89.5	93.7	50	68.4	1	3	270	0.00	30.005 
13:40	89.7	89.7	94.9	52	69.7	1	5	292	0.00	30.005 
13:45	89.5	89.5	92.1	46	65.9	1	3	292	0.00	29.995 
13:50	89.7	89.7	92.8	47	66.7	2	5	270	0.00	29.995 
13:55	89.9	89.9	93.1	47	66.9	2	6	90	0.00	29.995 
14:00	90.1	90.1	94.3	49	68.3	1	4	270	0.00	29.991 
14:05	90.5	90.5	95.1	49	68.7	1	4	270	0.00	29.991 
14:10	91.0	91.0	94.6	46	67.3	2	9	270	0.00	29.991 
14:15	90.1	90.1	91.9	43	64.5	3	6	270	0.00	29.991 
14:20	90.1	90.1	92.7	45	65.9	3	6	270	0.00	29.991 
14:25	90.1	90.1	91.5	42	63.9	3	6	270	0.00	29.991 
14:30	90.5	90.5	92.5	43	64.9	2	10	248	0.00	29.989 
14:35	90.7	90.7	92.1	41	63.7	2	4	270	0.00	29.989 
14:40	91.0	91.0	93.4	43	65.4	1	3	270	0.00	29.989 
14:45	91.4	91.4	93.2	41	64.3	2	6	270	0.00	29.986 
14:50	91.6	91.6	93.1	40	63.8	2	6	248	0.00	29.986 
14:55	91.4	91.4	92.4	39	62.9	3	6	248	0.00	29.986 
15:00	91.4	91.4	93.2	41	64.3	2	7	270	0.00	29.979 
15:05	91.8	91.8	93.9	41	64.7	2	6	248	0.00	29.979 
15:10	91.4	91.4	93.6	42	65.0	2	6	248	0.00	29.979 
15:15	90.3	90.3	91.8	42	64.0	2	5	248	0.00	29.978 
15:20	89.3	89.3	90.6	43	63.8	1	4	292	0.00	29.978 
15:25	89.5	89.5	92.4	47	66.6	2	4	270	0.00	29.978 
15:30	90.1	90.1	93.1	46	66.5	1	4	248	0.00	29.975 
15:35	90.7	90.7	92.5	42	64.4	2	6	270	0.00	29.975 
15:40	91.0	91.0	93.0	42	64.7	2	5	270	0.00	29.975 
15:45	91.8	91.8	95.2	44	66.7	1	5	248	0.00	29.966 
15:50	92.3	92.3	94.7	41	65.1	1	3	270	0.00	29.966 
15:55	92.3	92.3	95.6	43	66.5	1	3	248	0.00	29.966 
16:00	91.6	91.6	93.5	41	64.5	1	3	248	0.00	29.967 
16:05	91.0	91.0	93.8	44	66.0	1	4	270	0.00	29.967 
16:10	90.1	90.1	93.1	46	66.5	1	4	45	0.00	29.967 
16:15	89.7	89.7	92.0	45	65.5	1	3	0	0.00	29.961 
16:20	89.9	89.9	92.3	45	65.7	1	3	90	0.00	29.961 
16:25	90.1	90.1	91.9	43	64.5	1	3	90	0.00	29.961 
16:30	90.3	90.3	92.6	44	65.4	1	2	112	0.00	29.962 
16:35	90.5	90.5	94.2	47	67.5	1	5	248	0.00	29.962 
16:40	90.7	90.7	93.7	45	66.4	1	5	248	0.00	29.962 
16:45	90.5	90.5	93.8	46	66.8	2	4	90	0.00	29.956 
16:50	89.7	89.7	93.2	48	67.4	2	5	90	0.00	29.956 
16:55	89.3	89.3	92.5	48	67.0	1	2	90	0.00	29.956 
17:00	88.6	88.6	90.3	45	64.5	2	5	90	0.00	29.964 
17:05	87.0	87.0	89.4	50	66.1	4	11	90	0.00	29.964 
17:10	84.7	84.7	87.0	54	66.2	3	6	90	0.00	29.964 
17:15	84.0	84.0	86.3	55	66.1	3	9	90	0.00	29.978 
17:20	83.0	83.0	85.3	57	66.2	3	7	90	0.00	29.978 
17:25	82.6	82.6	84.7	57	65.8	2	4	90	0.00	29.978 
17:30	82.8	82.8	85.0	57	66.0	2	6	112	0.00	29.968 
17:35	83.0	83.0	85.1	56	65.7	2	6	112	0.00	29.968 
17:40	83.2	83.2	84.3	51	63.2	2	5	112	0.00	29.968 
17:45	83.2	83.2	84.1	50	62.6	2	4	112	0.00	29.971 
17:50	83.2	83.2	84.0	49	62.0	2	6	112	0.00	29.971 
17:55	83.2	83.2	83.8	48	61.4	2	5	112	0.00	29.971 
18:00	82.8	82.8	83.5	49	61.7	1	4	90	0.00	29.975 
18:05	82.0	82.0	83.4	54	63.7	1	5	68	0.00	29.975 
18:10	81.4	81.4	82.7	54	63.1	2	7	248	0.00	29.975 
18:15	81.1	81.1	82.8	57	64.4	1	3	68	0.00	29.977 
18:20	80.7	80.7	82.3	57	64.0	2	4	270	0.00	29.977 
18:25	80.3	80.3	81.9	58	64.2	1	3	248	0.00	29.977 
18:30	80.1	80.1	81.8	59	64.5	0	1	248	0.00	29.972 
18:35	80.1	80.1	81.8	59	64.5	1	2	248	0.00	29.972 
18:40	79.8	79.8	81.8	62	65.6	1	3	270	0.00	29.972 
18:45	78.8	78.8	80.9	66	66.5	0	2	270	0.00	29.978 
18:50	78.1	78.1	80.0	66	65.8	0	1	270	0.00	29.978 
18:55	77.7	77.7	79.6	66	65.4	0	0	---	0.00	29.978 
19:00	77.4	77.4	79.3	70	66.8	0	2	270	0.00	29.986 
19:05	76.5	76.5	78.2	71	66.4	0	2	270	0.00	29.986 
19:10	76.1	76.1	77.7	72	66.4	0	2	292	0.00	29.986 
19:15	75.8	75.8	77.3	73	66.5	0	1	292	0.00	29.988 
19:20	75.4	75.4	76.8	73	66.1	0	2	292	0.00	29.988 
19:25	75.1	75.1	76.4	74	66.2	0	1	292	0.00	29.988 
19:30	74.9	74.9	74.9	76	66.8	0	3	0	0.00	29.986 
19:35	74.9	74.9	74.9	77	67.2	0	0	---	0.01	29.986 
19:40	74.7	74.7	74.7	78	67.4	0	0	---	0.00	29.986 
19:45	74.4	74.4	74.4	80	67.8	0	1	0	0.00	29.978 
19:50	74.4	74.4	74.4	80	67.8	0	1	0	0.00	29.978 
19:55	74.6	74.6	74.6	78	67.3	0	0	---	0.00	29.978 
20:00	74.7	74.7	74.7	77	67.0	0	1	0	0.00	29.974 
20:05	75.1	75.1	76.0	78	67.8	0	2	0	0.00	29.974 
20:10	75.3	75.3	76.3	77	67.6	0	1	0	0.00	29.974 
20:15	75.6	75.6	76.7	77	67.9	0	2	0	0.00	29.965 
20:20	75.8	75.8	77.0	76	67.7	0	1	0	0.00	29.965 
20:25	76.0	76.0	77.4	75	67.5	0	1	0	0.00	29.965 
20:30	76.1	76.1	77.4	76	68.0	0	1	0	0.00	29.970 
20:35	76.0	76.0	77.4	75	67.5	0	2	0	0.00	29.970 
20:40	76.1	76.1	77.6	73	66.8	3	5	248	0.00	29.970 
20:45	76.1	76.1	77.7	71	66.0	3	7	270	0.00	29.994 
20:50	76.1	76.1	77.8	69	65.2	3	5	248	0.00	29.994 
20:55	76.1	76.1	77.8	69	65.2	3	7	270	0.00	29.994 
21:00	75.8	75.8	77.5	69	64.9	2	5	270	0.00	29.998 
21:05	74.9	74.9	74.9	71	64.8	2	6	270	0.00	29.998 
21:10	74.0	74.0	74.0	72	64.4	2	5	248	0.00	29.998 
21:15	73.7	73.7	73.7	72	64.1	2	11	248	0.00	29.992 
21:20	73.7	73.7	73.7	72	64.1	3	7	270	0.00	29.992 
21:25	73.7	73.7	73.7	71	63.7	2	5	248	0.00	29.992 
21:30	73.9	73.9	73.9	71	63.9	3	6	270	0.00	29.977 
21:35	74.0	74.0	74.0	70	63.6	4	11	248	0.00	29.977 
21:40	74.4	74.4	74.4	68	63.1	3	5	248	0.00	29.977 
21:45	74.9	74.9	74.9	65	62.3	2	4	248	0.00	29.976 
21:50	74.9	74.9	74.9	67	63.2	2	4	248	0.00	29.976 
21:55	74.4	74.4	74.4	70	64.0	1	3	248	0.00	29.976 
22:00	73.7	73.7	73.7	71	63.7	1	2	248	0.00	29.976 
22:05	73.0	73.0	73.0	74	64.2	0	2	248	0.00	29.976 
22:10	72.5	72.5	72.5	77	64.9	0	1	248	0.01	29.976 
22:15	72.1	72.1	72.1	79	65.2	1	2	248	0.00	29.977 
22:20	71.8	71.8	71.8	80	65.3	0	1	248	0.00	29.977 
22:25	71.6	71.6	71.6	81	65.4	0	2	248	0.00	29.977 
22:30	71.5	71.5	71.5	81	65.4	0	1	248	0.00	29.983 
22:35	71.3	71.3	71.3	80	64.8	0	2	248	0.00	29.983 
22:40	71.3	71.3	71.3	80	64.8	0	1	248	0.00	29.983 
22:45	71.1	71.1	71.1	79	64.2	0	1	248	0.00	29.988 
22:50	71.3	71.3	71.3	77	63.7	0	1	248	0.00	29.988 
22:55	71.8	71.8	71.8	71	61.9	0	2	248	0.00	29.988 
23:00	72.3	72.3	72.3	69	61.5	1	2	248	0.00	29.993 
23:05	72.8	72.8	72.8	69	62.0	0	1	248	0.00	29.993 
23:10	73.0	73.0	73.0	70	62.6	0	1	248	0.00	29.993 
23:15	73.0	73.0	73.0	72	63.4	0	1	248	0.00	29.992 
23:20	72.8	72.8	72.8	76	64.8	0	1	248	0.00	29.992 
23:25	72.7	72.7	72.7	76	64.7	0	1	248	0.00	29.992 
23:30	72.5	72.5	72.5	75	64.1	0	0	---	0.00	29.996 
23:35	72.5	72.5	72.5	75	64.1	1	3	248	0.00	29.996 
23:40	72.5	72.5	72.5	73	63.3	3	5	112	0.00	29.996 
23:45	72.5	72.5	72.5	72	62.9	1	3	45	0.00	30.009 
23:50	72.5	72.5	72.5	71	62.5	1	2	45	0.00	30.009 
23:55	72.5	72.5	72.5	71	62.5	0	1	45	0.00	30.009 

CoCoRaHS
IN-AL-39
A2 Web Hosting
Creative Commons License
GoDaddy
Look for:

loaded 2017-10-17 22:27:10 • last modified 2010-11-18 10:43:29
Privacy PolicyDisclaimer
• wx.awcolley.com is powered by PmWiki v.2002016 •
• all content (unless otherwise noted) © 2017 A W Colley